createdAt,value
2022-09-03T00:02:28.867Z,1.30
2022-09-03T00:05:23.310Z,1.20
2022-09-03T00:08:13.581Z,1.20
2022-09-03T00:11:08.998Z,1.27
2022-09-03T00:14:03.064Z,1.40
2022-09-03T00:16:54.720Z,1.40
2022-09-03T00:19:47.993Z,1.20
2022-09-03T00:22:39.426Z,1.30
2022-09-03T00:25:30.396Z,1.33
2022-09-03T00:28:24.352Z,1.40
2022-09-03T00:31:18.291Z,1.37
2022-09-03T00:34:10.847Z,1.10
2022-09-03T00:36:59.429Z,1.37
2022-09-03T00:39:48.868Z,1.30
2022-09-03T00:42:43.828Z,1.20
2022-09-03T00:45:38.904Z,1.20
2022-09-03T00:48:29.757Z,1.40
2022-09-03T00:51:25.522Z,1.13
2022-09-03T00:54:18.905Z,1.30
2022-09-03T00:57:25.363Z,1.30
2022-09-03T01:00:16.359Z,1.20
2022-09-03T01:03:08.864Z,1.50
2022-09-03T01:06:11.053Z,1.23
2022-09-03T01:09:13.630Z,1.40
2022-09-03T01:12:08.071Z,1.13
2022-09-03T01:15:05.362Z,1.10
2022-09-03T01:18:04.047Z,1.17
2022-09-03T01:21:05.072Z,1.20
2022-09-03T01:24:19.144Z,1.10
2022-09-03T01:27:19.292Z,1.27
2022-09-03T01:30:10.417Z,1.47
2022-09-03T01:33:02.818Z,1.70
2022-09-03T01:35:54.309Z,1.23
2022-09-03T01:38:45.809Z,1.30
2022-09-03T01:42:03.286Z,1.30
2022-09-03T01:45:23.317Z,1.40
2022-09-03T01:48:30.634Z,1.20
2022-09-03T01:51:21.946Z,1.20
2022-09-03T01:54:50.384Z,1.20
2022-09-03T01:57:49.578Z,1.37
2022-09-03T02:00:40.793Z,1.20
2022-09-03T02:03:35.528Z,1.40
2022-09-03T02:06:31.676Z,1.33
2022-09-03T02:09:20.370Z,1.30
2022-09-03T02:12:13.040Z,1.30
2022-09-03T02:15:03.666Z,1.20
2022-09-03T02:17:56.135Z,1.67
2022-09-03T02:20:44.764Z,1.20
2022-09-03T02:23:33.241Z,1.30
2022-09-03T02:26:24.475Z,1.40
2022-09-03T02:29:12.988Z,1.40
2022-09-03T02:32:01.477Z,1.70
2022-09-03T02:34:51.325Z,1.30
2022-09-03T02:37:39.861Z,1.30
2022-09-03T02:40:28.433Z,1.30
2022-09-03T02:43:20.219Z,1.17
2022-09-03T02:46:16.168Z,1.40
2022-09-03T02:49:04.912Z,1.47
2022-09-03T02:51:59.219Z,1.40
2022-09-03T02:54:47.682Z,1.33
2022-09-03T02:57:36.152Z,1.40
2022-09-03T03:00:24.823Z,1.40
2022-09-03T03:03:13.334Z,1.20
2022-09-03T03:06:04.026Z,1.30
2022-09-03T03:08:57.776Z,1.30
2022-09-03T03:11:46.809Z,1.20
2022-09-03T03:14:35.312Z,1.50
2022-09-03T03:17:23.729Z,1.53
2022-09-03T03:20:12.476Z,1.30
2022-09-03T03:23:04.738Z,1.37
2022-09-03T03:25:54.567Z,1.70
2022-09-03T03:28:43.175Z,1.40
2022-09-03T03:31:31.816Z,1.70
2022-09-03T03:34:20.277Z,1.20
2022-09-03T03:37:08.740Z,1.53
2022-09-03T03:39:57.372Z,1.40
2022-09-03T03:42:47.349Z,1.27
2022-09-03T03:45:35.967Z,1.30
2022-09-03T03:48:24.588Z,1.43
2022-09-03T03:51:13.363Z,1.40
2022-09-03T03:54:05.010Z,1.30
2022-09-03T03:56:55.703Z,1.40
2022-09-03T03:59:45.635Z,1.30
2022-09-03T04:02:39.073Z,1.30
2022-09-03T04:05:27.931Z,1.60
2022-09-03T04:08:22.386Z,1.40
2022-09-03T04:11:12.322Z,1.20
2022-09-03T04:14:00.725Z,1.40
2022-09-03T04:16:51.231Z,1.47
2022-09-03T04:19:39.785Z,1.20
2022-09-03T04:22:29.740Z,1.30
2022-09-03T04:25:18.197Z,1.50
2022-09-03T04:28:06.666Z,1.33
2022-09-03T04:30:55.350Z,1.40
2022-09-03T04:33:45.311Z,1.20
2022-09-03T04:36:33.791Z,1.30
2022-09-03T04:39:22.225Z,1.40
2022-09-03T04:42:10.729Z,1.30
2022-09-03T04:44:59.227Z,1.40
2022-09-03T04:47:58.515Z,1.40
2022-09-03T04:50:48.304Z,1.50
2022-09-03T04:53:38.892Z,1.40
2022-09-03T04:56:28.747Z,1.50
2022-09-03T04:59:17.324Z,1.40
2022-09-03T05:02:06.007Z,1.40
2022-09-03T05:04:54.559Z,1.10
2022-09-03T05:07:45.030Z,1.50
2022-09-03T05:10:33.921Z,1.40
2022-09-03T05:13:22.442Z,1.50
2022-09-03T05:16:13.091Z,1.30
2022-09-03T05:19:03.593Z,1.30
2022-09-03T05:21:52.131Z,1.10
2022-09-03T05:24:41.919Z,1.50
2022-09-03T05:27:30.342Z,1.60
2022-09-03T05:30:19.116Z,1.80
2022-09-03T05:33:07.563Z,1.70
2022-09-03T05:35:56.517Z,1.40
2022-09-03T05:38:45.203Z,1.57
2022-09-03T05:41:35.339Z,1.70
2022-09-03T05:44:23.963Z,1.40
2022-09-03T05:47:12.379Z,1.73
2022-09-03T05:50:01.014Z,1.83
2022-09-03T05:52:49.495Z,1.90
2022-09-03T05:55:37.952Z,1.60
2022-09-03T05:58:31.622Z,1.70
2022-09-03T06:01:21.017Z,1.43
2022-09-03T06:04:11.741Z,1.57
2022-09-03T06:07:00.209Z,1.60
2022-09-03T06:09:48.669Z,1.57
2022-09-03T06:12:37.149Z,1.50
2022-09-03T06:15:27.087Z,1.50
2022-09-03T06:18:15.575Z,1.47
2022-09-03T06:21:05.868Z,1.70
2022-09-03T06:23:56.575Z,1.40
2022-09-03T06:26:47.085Z,1.50
2022-09-03T06:29:36.242Z,1.70
2022-09-03T06:32:26.128Z,1.50
2022-09-03T06:35:14.819Z,1.73
2022-09-03T06:38:03.326Z,1.50
2022-09-03T06:40:55.134Z,2.10
2022-09-03T06:43:43.714Z,1.37
2022-09-03T06:46:33.120Z,1.40
2022-09-03T06:49:24.529Z,1.80
2022-09-03T06:52:13.020Z,1.80
2022-09-03T06:55:01.502Z,1.70
2022-09-03T06:57:52.900Z,1.40
2022-09-03T07:00:41.730Z,1.70
2022-09-03T07:03:30.234Z,1.53
2022-09-03T07:06:21.722Z,1.60
2022-09-03T07:09:11.158Z,1.40
2022-09-03T07:11:59.668Z,1.63
2022-09-03T07:14:48.546Z,1.70
2022-09-03T07:17:39.840Z,2.10
2022-09-03T07:20:28.296Z,1.80
2022-09-03T07:23:18.285Z,1.53
2022-09-03T07:26:08.107Z,1.60
2022-09-03T07:28:56.766Z,1.57
2022-09-03T07:31:45.360Z,1.60
2022-09-03T07:34:35.746Z,1.67
2022-09-03T07:37:25.424Z,1.70
2022-09-03T07:40:19.842Z,1.90
2022-09-03T07:43:08.335Z,1.60
2022-09-03T07:45:57.956Z,1.67
2022-09-03T07:48:48.984Z,1.70
2022-09-03T07:51:38.971Z,1.80
2022-09-03T07:54:27.915Z,1.60
2022-09-03T07:57:17.836Z,1.57
2022-09-03T08:00:08.100Z,1.80
2022-09-03T08:03:05.948Z,1.87
2022-09-03T08:05:55.145Z,1.70
2022-09-03T08:08:45.172Z,1.80
2022-09-03T08:11:35.026Z,1.77
2022-09-03T08:14:24.879Z,2.17
2022-09-03T08:17:13.552Z,1.87
2022-09-03T08:20:02.110Z,2.10
2022-09-03T08:22:51.174Z,1.97
2022-09-03T08:25:39.681Z,1.93
2022-09-03T08:28:28.240Z,2.20
2022-09-03T08:31:19.739Z,2.33
2022-09-03T08:34:10.444Z,2.10
2022-09-03T08:36:59.009Z,1.83
2022-09-03T08:39:47.541Z,2.20
2022-09-03T08:42:46.440Z,2.20
2022-09-03T08:45:38.168Z,1.87
2022-09-03T08:48:28.392Z,1.93
2022-09-03T08:51:17.528Z,1.87
2022-09-03T08:54:06.256Z,1.90
2022-09-03T08:56:54.670Z,2.27
2022-09-03T08:59:43.179Z,1.70
2022-09-03T09:02:37.615Z,2.07
2022-09-03T09:05:38.474Z,2.00
2022-09-03T09:08:35.468Z,2.00
2022-09-03T09:11:32.591Z,2.13
2022-09-03T09:14:25.401Z,2.23
2022-09-03T09:17:33.231Z,2.13
2022-09-03T09:20:30.249Z,2.30
2022-09-03T09:23:23.956Z,2.27
2022-09-03T09:26:16.905Z,2.30
2022-09-03T09:29:10.247Z,2.50
2022-09-03T09:31:58.852Z,1.83
2022-09-03T09:34:51.844Z,2.43
2022-09-03T09:37:51.115Z,2.43
2022-09-03T09:40:44.878Z,2.30
2022-09-03T09:43:33.910Z,2.50
2022-09-03T09:46:24.028Z,2.37
2022-09-03T09:49:30.095Z,2.53
2022-09-03T09:52:18.883Z,2.63
2022-09-03T09:55:10.881Z,2.43
2022-09-03T09:58:13.980Z,2.63
2022-09-03T10:01:12.951Z,2.87
2022-09-03T10:04:09.036Z,2.50
2022-09-03T10:07:00.185Z,2.77
2022-09-03T10:10:02.724Z,3.00
2022-09-03T10:12:58.291Z,2.83
2022-09-03T10:15:48.875Z,2.97
2022-09-03T10:18:41.813Z,2.83
2022-09-03T10:21:43.054Z,2.73
2022-09-03T10:24:52.468Z,2.77
2022-09-03T10:27:42.223Z,2.50
2022-09-03T10:30:32.411Z,3.03
2022-09-03T10:33:25.325Z,2.30
2022-09-03T10:36:20.000Z,2.60
2022-09-03T10:39:14.143Z,2.30
2022-09-03T10:42:11.012Z,2.77
2022-09-03T10:45:04.953Z,2.50
2022-09-03T10:48:35.443Z,2.73
2022-09-03T10:51:26.427Z,2.60
2022-09-03T10:54:27.424Z,2.50
2022-09-03T10:57:24.440Z,2.30
2022-09-03T11:00:13.950Z,2.30
2022-09-03T11:03:44.987Z,2.80
2022-09-03T11:06:40.222Z,2.60
2022-09-03T11:09:32.482Z,2.60
2022-09-03T11:12:25.387Z,2.50
2022-09-03T11:15:17.349Z,2.20
2022-09-03T11:18:12.451Z,2.17
2022-09-03T11:21:07.662Z,2.10
2022-09-03T11:24:07.562Z,2.10
2022-09-03T11:26:59.074Z,2.23
2022-09-03T11:29:50.997Z,2.00
2022-09-03T11:32:49.839Z,2.60
2022-09-03T11:35:43.165Z,2.00
2022-09-03T11:38:33.142Z,2.00
2022-09-03T11:41:26.935Z,2.20
2022-09-03T11:44:19.596Z,2.20
2022-09-03T11:47:17.194Z,1.80
2022-09-03T11:50:08.972Z,2.70
2022-09-03T11:53:10.119Z,2.27
2022-09-03T11:56:03.694Z,2.10
2022-09-03T11:59:18.430Z,1.97
2022-09-03T12:02:20.954Z,2.20
2022-09-03T12:05:25.498Z,2.30
2022-09-03T12:09:02.501Z,1.90
2022-09-03T12:11:58.538Z,1.80
2022-09-03T12:14:50.550Z,1.60
2022-09-03T12:17:43.097Z,1.30
2022-09-03T12:20:31.748Z,1.40
2022-09-03T12:23:29.152Z,1.53
2022-09-03T12:26:19.777Z,1.30
2022-09-03T12:29:27.827Z,1.30
2022-09-03T12:32:16.520Z,1.70
2022-09-03T12:35:14.329Z,1.40
2022-09-03T12:38:05.959Z,1.47
2022-09-03T12:44:05.097Z,1.20
2022-09-03T12:50:12.661Z,1.27
2022-09-03T12:53:02.628Z,1.40
2022-09-03T12:55:53.171Z,1.10
2022-09-03T12:58:45.804Z,1.40
2022-09-03T13:01:38.110Z,1.47
2022-09-03T13:04:29.300Z,1.27
2022-09-03T13:07:25.276Z,1.33
2022-09-03T13:10:25.044Z,1.30
2022-09-03T13:13:22.983Z,1.30
2022-09-03T13:16:44.925Z,1.30
2022-09-03T13:19:43.845Z,1.40
2022-09-03T13:22:37.987Z,1.20
2022-09-03T13:25:29.291Z,1.30
2022-09-03T13:28:28.769Z,1.27
2022-09-03T13:31:28.874Z,1.40
2022-09-03T13:34:19.987Z,1.30
2022-09-03T13:37:18.361Z,1.33
2022-09-03T13:40:16.017Z,1.37
2022-09-03T13:43:13.419Z,1.50
2022-09-03T13:46:04.701Z,1.50
2022-09-03T13:49:10.616Z,1.50
2022-09-03T13:52:01.856Z,2.17
2022-09-03T13:54:55.159Z,1.47
2022-09-03T13:57:49.610Z,1.50
2022-09-03T14:00:42.134Z,1.60
2022-09-03T14:03:33.450Z,1.60
2022-09-03T14:06:40.607Z,1.40
2022-09-03T14:09:37.186Z,1.73
2022-09-03T14:12:42.438Z,1.93
2022-09-03T14:15:35.098Z,2.00
2022-09-03T14:18:35.034Z,1.60
2022-09-03T14:21:26.136Z,1.50
2022-09-03T14:24:17.666Z,1.77
2022-09-03T14:27:07.577Z,1.50
2022-09-03T14:30:03.962Z,1.80
2022-09-03T14:32:54.976Z,2.07
2022-09-03T14:36:00.828Z,2.10
2022-09-03T14:39:24.613Z,1.87
2022-09-03T14:42:35.635Z,2.30
2022-09-03T14:46:05.716Z,2.13
2022-09-03T14:49:35.433Z,2.37
2022-09-03T14:52:58.866Z,2.43
2022-09-03T14:56:11.654Z,2.20
2022-09-03T14:59:26.104Z,2.30
2022-09-03T15:02:59.566Z,2.70
2022-09-03T15:06:05.674Z,2.37
2022-09-03T15:09:16.758Z,3.37
2022-09-03T15:12:10.943Z,3.20
2022-09-03T15:15:02.152Z,3.43
2022-09-03T15:18:04.805Z,3.03
2022-09-03T15:20:54.516Z,3.37
2022-09-03T15:24:56.594Z,3.67
2022-09-03T15:27:59.650Z,3.63
2022-09-03T15:30:53.236Z,4.03
2022-09-03T15:33:46.006Z,2.87
2022-09-03T15:36:38.919Z,3.10
2022-09-03T15:39:29.769Z,3.43
2022-09-03T15:42:27.286Z,3.40
2022-09-03T15:45:22.106Z,2.80
2022-09-03T15:48:19.119Z,3.03
2022-09-03T15:51:14.540Z,3.30
2022-09-03T15:54:10.845Z,2.70
2022-09-03T15:57:03.534Z,2.90
2022-09-03T15:59:59.650Z,2.70
2022-09-03T16:02:54.500Z,3.37
2022-09-03T16:05:45.612Z,3.10
2022-09-03T16:08:41.114Z,3.37
2022-09-03T16:11:37.388Z,2.90
2022-09-03T16:14:31.025Z,3.10
2022-09-03T16:17:27.847Z,2.80
2022-09-03T16:20:19.493Z,3.20
2022-09-03T16:23:13.250Z,2.90
2022-09-03T16:26:05.493Z,3.00
2022-09-03T16:28:58.482Z,2.83
2022-09-03T16:31:57.388Z,2.50
2022-09-03T16:34:55.702Z,2.93
2022-09-03T16:37:52.460Z,2.67
2022-09-03T16:40:44.075Z,2.70
2022-09-03T16:43:41.951Z,2.43
2022-09-03T16:46:37.475Z,1.87
2022-09-03T16:49:39.557Z,2.20
2022-09-03T16:52:38.829Z,2.37
2022-09-03T16:55:33.766Z,2.50
2022-09-03T16:58:25.756Z,2.60
2022-09-03T17:01:22.895Z,2.50
2022-09-03T17:04:43.091Z,2.20
2022-09-03T17:07:54.084Z,2.43
2022-09-03T17:10:47.153Z,2.50
2022-09-03T17:13:55.824Z,2.50
2022-09-03T17:16:52.434Z,2.10
2022-09-03T17:19:46.026Z,2.50
2022-09-03T17:22:46.237Z,2.60
2022-09-03T17:25:37.189Z,2.27
2022-09-03T17:28:30.534Z,2.40
2022-09-03T17:31:23.039Z,2.33
2022-09-03T17:34:15.636Z,2.13
2022-09-03T17:37:13.451Z,2.20
2022-09-03T17:40:12.745Z,2.10
2022-09-03T17:43:06.418Z,2.20
2022-09-03T17:45:57.941Z,2.20
2022-09-03T17:48:55.671Z,2.30
2022-09-03T17:51:48.040Z,2.00
2022-09-03T17:54:42.080Z,2.30
2022-09-03T17:57:34.072Z,2.20
2022-09-03T18:00:25.277Z,2.03
2022-09-03T18:03:18.917Z,2.50
2022-09-03T18:06:11.274Z,2.20
2022-09-03T18:09:02.783Z,2.30
2022-09-03T18:11:55.212Z,2.10
2022-09-03T18:14:51.991Z,2.17
2022-09-03T18:17:45.285Z,2.30
2022-09-03T18:21:21.933Z,2.10
2022-09-03T18:24:40.119Z,2.33
2022-09-03T18:27:48.061Z,2.40
2022-09-03T18:30:55.652Z,2.43
2022-09-03T18:34:01.579Z,2.10
2022-09-03T18:37:07.982Z,2.10
2022-09-03T18:40:14.131Z,2.10
2022-09-03T18:43:28.348Z,2.10
2022-09-03T18:47:56.302Z,2.10
2022-09-03T18:50:07.230Z,1.90
2022-09-03T18:53:15.352Z,2.07
2022-09-03T18:56:28.024Z,2.10
2022-09-03T18:59:46.744Z,2.40
2022-09-03T19:03:23.585Z,2.33
2022-09-03T19:06:37.989Z,2.30
2022-09-03T19:09:56.080Z,2.23
2022-09-03T19:13:20.157Z,2.10
2022-09-03T19:16:29.699Z,2.23
2022-09-03T19:19:56.476Z,2.30
2022-09-03T19:23:02.488Z,2.20
2022-09-03T19:26:08.928Z,2.33
2022-09-03T19:29:16.432Z,2.20
2022-09-03T19:32:23.316Z,2.40
2022-09-03T19:35:35.035Z,2.20
2022-09-03T19:38:45.144Z,2.40
2022-09-03T19:41:55.131Z,2.27
2022-09-03T19:45:09.613Z,2.40
2022-09-03T19:48:22.288Z,2.30
2022-09-03T19:51:33.308Z,2.60
2022-09-03T19:54:41.769Z,2.40
2022-09-03T19:57:47.985Z,2.50
2022-09-03T20:00:54.103Z,2.50
2022-09-03T20:04:00.730Z,2.40
2022-09-03T20:07:08.285Z,2.83
2022-09-03T20:10:16.386Z,2.40
2022-09-03T20:13:08.396Z,2.70
2022-09-03T20:16:01.135Z,2.50
2022-09-03T20:18:54.675Z,2.70
2022-09-03T20:21:50.054Z,2.70
2022-09-03T20:24:47.630Z,2.53
2022-09-03T20:27:44.583Z,2.80
2022-09-03T20:30:35.730Z,2.60
2022-09-03T20:33:32.369Z,2.83
2022-09-03T20:36:28.527Z,2.73
2022-09-03T20:39:31.956Z,2.60
2022-09-03T20:42:47.658Z,2.90
2022-09-03T20:45:44.458Z,3.00
2022-09-03T20:48:36.746Z,3.13
2022-09-03T20:51:28.139Z,2.87
2022-09-03T20:54:22.135Z,2.97
2022-09-03T20:57:22.247Z,2.70
2022-09-03T21:00:13.889Z,3.10
2022-09-03T21:03:13.008Z,3.00
2022-09-03T21:06:12.835Z,2.53
2022-09-03T21:09:30.164Z,2.77
2022-09-03T21:12:23.637Z,2.67
2022-09-03T21:15:17.163Z,3.03
2022-09-03T21:18:11.586Z,2.80
2022-09-03T21:21:09.597Z,2.70
2022-09-03T21:24:04.940Z,3.20
2022-09-03T21:26:58.228Z,3.10
2022-09-03T21:29:50.678Z,2.73
2022-09-03T21:32:43.851Z,2.80
2022-09-03T21:35:35.814Z,3.00
2022-09-03T21:38:26.914Z,2.50
2022-09-03T21:41:19.824Z,2.60
2022-09-03T21:44:14.601Z,2.90
2022-09-03T21:47:06.816Z,2.63
2022-09-03T21:50:04.135Z,2.80
2022-09-03T21:52:55.110Z,2.73
2022-09-03T21:55:50.018Z,2.93
2022-09-03T21:58:51.621Z,2.87
2022-09-03T22:01:56.933Z,2.90
2022-09-03T22:04:45.436Z,2.80
2022-09-03T22:07:45.298Z,3.00
2022-09-03T22:10:46.426Z,3.07
2022-09-03T22:13:39.463Z,2.87
2022-09-03T22:16:31.533Z,3.10
2022-09-03T22:19:21.515Z,3.33
2022-09-03T22:22:14.045Z,3.10
2022-09-03T22:25:05.729Z,2.90
2022-09-03T22:28:00.840Z,2.50
2022-09-03T22:30:53.414Z,2.57
2022-09-03T22:33:45.531Z,2.80
2022-09-03T22:36:36.799Z,2.57
2022-09-03T22:39:29.736Z,2.67
2022-09-03T22:42:44.289Z,2.87
2022-09-03T22:45:44.825Z,2.90
2022-09-03T22:48:57.529Z,2.67
2022-09-03T22:51:57.939Z,2.80
2022-09-03T22:54:57.229Z,3.10
2022-09-03T22:57:57.587Z,2.80
2022-09-03T23:00:49.860Z,3.27
2022-09-03T23:03:44.108Z,3.00
2022-09-03T23:06:35.309Z,3.07
2022-09-03T23:09:28.968Z,2.77
2022-09-03T23:12:20.198Z,3.23
2022-09-03T23:15:11.417Z,3.00
2022-09-03T23:18:05.575Z,2.90
2022-09-03T23:21:01.174Z,3.00
2022-09-03T23:23:54.964Z,2.97
2022-09-03T23:26:47.869Z,3.30
2022-09-03T23:29:38.764Z,3.23
2022-09-03T23:32:31.260Z,3.50
2022-09-03T23:35:22.081Z,3.07
2022-09-03T23:38:16.786Z,2.90
2022-09-03T23:41:07.322Z,3.30
2022-09-03T23:44:07.646Z,3.30
2022-09-03T23:47:00.830Z,3.57
2022-09-03T23:49:56.407Z,2.90
2022-09-03T23:52:59.693Z,3.00
2022-09-03T23:55:57.351Z,2.73
2022-09-03T23:58:55.949Z,2.77
